createdAt,value
2023-04-30T00:02:55.777Z,14.88
2023-04-30T00:06:37.863Z,13.88
2023-04-30T00:10:19.790Z,15.52
2023-04-30T00:14:01.555Z,15.30
2023-04-30T00:17:44.172Z,15.60
2023-04-30T00:21:26.338Z,14.85
2023-04-30T00:25:09.409Z,14.68
2023-04-30T00:28:51.102Z,15.65
2023-04-30T00:32:32.882Z,14.50
2023-04-30T00:36:14.706Z,14.25
2023-04-30T00:39:56.711Z,15.68
2023-04-30T00:43:38.735Z,14.63
2023-04-30T00:47:20.808Z,14.82
2023-04-30T00:51:03.998Z,14.88
2023-04-30T00:54:46.969Z,15.30
2023-04-30T00:58:29.622Z,14.10
2023-04-30T01:02:12.020Z,12.70
2023-04-30T01:05:54.185Z,12.90
2023-04-30T01:09:36.940Z,12.15
2023-04-30T01:13:28.913Z,13.00
2023-04-30T01:17:23.681Z,12.07
2023-04-30T01:21:06.332Z,12.88
2023-04-30T01:25:21.881Z,12.95
2023-04-30T01:29:05.561Z,13.05
2023-04-30T01:32:47.425Z,13.18
2023-04-30T01:36:55.670Z,13.20
2023-04-30T01:41:04.384Z,13.63
2023-04-30T01:45:04.937Z,13.38
2023-04-30T01:49:14.218Z,15.00
2023-04-30T01:53:00.634Z,14.57
2023-04-30T01:56:49.795Z,16.10
2023-04-30T02:00:31.696Z,15.43
2023-04-30T02:04:13.436Z,16.38
2023-04-30T02:07:55.443Z,16.08
2023-04-30T02:11:37.229Z,16.10
2023-04-30T02:15:19.134Z,16.38
2023-04-30T02:19:01.925Z,16.35
2023-04-30T02:22:43.761Z,17.23
2023-04-30T02:26:26.809Z,15.55
2023-04-30T02:30:08.990Z,15.98
2023-04-30T02:33:50.670Z,16.05
2023-04-30T02:37:32.759Z,15.90
2023-04-30T02:41:14.617Z,16.05
2023-04-30T02:44:56.890Z,15.80
2023-04-30T02:48:39.233Z,16.38
2023-04-30T02:52:24.475Z,16.75
2023-04-30T02:56:07.258Z,16.60
2023-04-30T02:59:52.525Z,16.92
2023-04-30T03:03:44.054Z,17.33
2023-04-30T03:07:26.138Z,17.13
2023-04-30T03:11:11.168Z,16.17
2023-04-30T03:14:53.736Z,17.33
2023-04-30T03:18:36.647Z,17.33
2023-04-30T03:22:24.281Z,17.60
2023-04-30T03:26:09.657Z,17.73
2023-04-30T03:29:52.658Z,17.02
2023-04-30T03:33:35.572Z,17.55
2023-04-30T03:37:41.122Z,18.45
2023-04-30T03:41:24.309Z,17.88
2023-04-30T03:45:06.701Z,17.52
2023-04-30T03:48:48.783Z,17.40
2023-04-30T03:52:31.485Z,17.73
2023-04-30T03:56:16.124Z,16.83
2023-04-30T04:00:01.789Z,16.90
2023-04-30T04:03:46.872Z,16.38
2023-04-30T04:07:32.411Z,17.08
2023-04-30T04:11:19.728Z,17.75
2023-04-30T04:15:07.565Z,17.97
2023-04-30T04:18:53.204Z,17.05
2023-04-30T04:22:41.977Z,17.80
2023-04-30T04:26:27.768Z,17.63
2023-04-30T04:30:10.208Z,18.58
2023-04-30T04:33:58.279Z,17.42
2023-04-30T04:41:29.635Z,18.17
2023-04-30T04:45:15.393Z,18.23
2023-04-30T04:48:59.269Z,18.33
2023-04-30T04:52:49.599Z,18.70
2023-04-30T04:56:36.923Z,18.45
2023-04-30T05:00:19.173Z,18.47
2023-04-30T05:04:01.933Z,19.40
2023-04-30T05:07:44.555Z,18.40
2023-04-30T05:11:26.987Z,18.33
2023-04-30T05:15:09.053Z,19.10
2023-04-30T05:18:50.766Z,19.10
2023-04-30T05:22:32.533Z,19.33
2023-04-30T05:26:14.261Z,18.80
2023-04-30T05:29:56.131Z,19.48
2023-04-30T05:33:38.158Z,19.33
2023-04-30T05:37:20.655Z,19.35
2023-04-30T05:41:02.479Z,17.88
2023-04-30T05:44:44.273Z,18.25
2023-04-30T05:48:26.587Z,19.17
2023-04-30T05:52:08.360Z,19.23
2023-04-30T05:55:50.626Z,20.33
2023-04-30T05:59:32.487Z,20.67
2023-04-30T06:03:14.348Z,21.08
2023-04-30T06:06:57.287Z,20.23
2023-04-30T06:10:40.650Z,22.00
2023-04-30T06:14:22.912Z,21.92
2023-04-30T06:18:04.809Z,20.90
2023-04-30T06:21:46.620Z,21.20
2023-04-30T06:25:29.216Z,21.55
2023-04-30T06:29:10.960Z,21.05
2023-04-30T06:32:52.927Z,22.00
2023-04-30T06:36:34.668Z,21.38
2023-04-30T06:40:16.528Z,23.27
2023-04-30T06:43:58.609Z,22.13
2023-04-30T06:47:42.618Z,21.67
2023-04-30T06:51:24.619Z,23.58
2023-04-30T06:55:06.770Z,22.70
2023-04-30T06:58:50.251Z,22.77
2023-04-30T07:02:32.287Z,23.55
2023-04-30T07:06:14.381Z,23.38
2023-04-30T07:09:56.734Z,23.50
2023-04-30T07:13:42.020Z,24.25
2023-04-30T07:17:26.107Z,22.83
2023-04-30T07:21:09.311Z,24.08
2023-04-30T07:24:51.247Z,24.58
2023-04-30T07:28:33.066Z,24.42
2023-04-30T07:32:15.513Z,23.40
2023-04-30T07:35:58.549Z,23.73
2023-04-30T07:39:40.340Z,22.40
2023-04-30T07:43:22.103Z,23.95
2023-04-30T07:47:05.405Z,23.63
2023-04-30T07:50:51.479Z,23.30
2023-04-30T07:54:36.494Z,22.52
2023-04-30T07:58:18.246Z,21.73
2023-04-30T08:02:00.073Z,23.77
2023-04-30T08:05:41.937Z,23.75
2023-04-30T08:09:23.748Z,23.58
2023-04-30T08:13:05.904Z,23.58
2023-04-30T08:16:47.876Z,23.27
2023-04-30T08:20:29.991Z,23.27
2023-04-30T08:24:12.340Z,23.55
2023-04-30T08:27:54.108Z,23.08
2023-04-30T08:31:36.499Z,23.35
2023-04-30T08:35:18.784Z,23.88
2023-04-30T08:39:02.286Z,23.55
2023-04-30T08:42:54.157Z,23.90
2023-04-30T08:46:38.628Z,25.35
2023-04-30T08:50:20.461Z,25.45
2023-04-30T08:54:02.244Z,25.95
2023-04-30T08:57:44.028Z,23.85
2023-04-30T09:01:27.446Z,24.67
2023-04-30T09:05:12.562Z,24.33
2023-04-30T09:08:54.532Z,24.13
2023-04-30T09:12:37.092Z,22.33
2023-04-30T09:16:20.504Z,23.58
2023-04-30T09:20:12.997Z,23.73
2023-04-30T09:23:59.938Z,24.08
2023-04-30T09:27:42.008Z,22.48
2023-04-30T09:31:25.006Z,23.45
2023-04-30T09:35:07.083Z,23.58
2023-04-30T09:38:48.836Z,23.77
2023-04-30T09:42:31.050Z,25.33
2023-04-30T09:46:12.967Z,23.98
2023-04-30T09:49:54.958Z,22.10
2023-04-30T09:53:42.757Z,21.80
2023-04-30T09:57:25.629Z,23.73
2023-04-30T10:01:11.300Z,22.17
2023-04-30T10:04:58.192Z,21.90
2023-04-30T10:08:42.648Z,23.23
2023-04-30T10:12:32.334Z,22.38
2023-04-30T10:16:58.814Z,21.50
2023-04-30T10:20:41.620Z,22.52
2023-04-30T10:24:23.581Z,22.42
2023-04-30T10:28:06.638Z,22.60
2023-04-30T10:31:50.511Z,22.17
2023-04-30T10:35:41.445Z,20.23
2023-04-30T10:39:27.575Z,23.30
2023-04-30T10:43:11.846Z,19.90
2023-04-30T10:47:01.772Z,20.25
2023-04-30T10:50:46.208Z,19.88
2023-04-30T10:54:30.033Z,19.85
2023-04-30T10:58:32.236Z,20.13
2023-04-30T11:02:17.323Z,19.58
2023-04-30T11:06:03.919Z,20.98
2023-04-30T11:09:48.657Z,17.25
2023-04-30T11:13:44.076Z,17.02
2023-04-30T11:17:27.978Z,15.82
2023-04-30T11:21:10.851Z,15.82
2023-04-30T11:25:18.829Z,16.45
2023-04-30T11:29:01.283Z,15.53
2023-04-30T11:32:47.507Z,15.40
2023-04-30T11:36:31.643Z,15.25
2023-04-30T11:40:14.764Z,15.38
2023-04-30T11:43:56.511Z,15.05
2023-04-30T11:47:46.059Z,15.45
2023-04-30T11:51:27.845Z,15.13
2023-04-30T11:55:17.711Z,14.85
2023-04-30T11:58:59.464Z,14.18
2023-04-30T12:02:43.627Z,15.05
2023-04-30T12:06:29.827Z,15.60
2023-04-30T12:10:11.774Z,14.68
2023-04-30T12:14:03.481Z,16.35
2023-04-30T12:17:46.888Z,15.68
2023-04-30T12:21:29.068Z,18.00
2023-04-30T12:25:18.588Z,19.23
2023-04-30T12:29:00.392Z,16.55
2023-04-30T12:32:44.548Z,16.10
2023-04-30T12:36:33.640Z,15.77
2023-04-30T12:40:15.697Z,15.05
2023-04-30T12:44:21.248Z,14.45
2023-04-30T12:48:03.153Z,14.88
2023-04-30T12:51:45.012Z,15.32
2023-04-30T12:55:28.439Z,14.20
2023-04-30T12:59:16.720Z,14.05
2023-04-30T13:02:58.539Z,14.50
2023-04-30T13:06:40.516Z,14.93
2023-04-30T13:10:23.028Z,14.70
2023-04-30T13:14:04.819Z,15.65
2023-04-30T13:17:47.137Z,13.90
2023-04-30T13:21:29.086Z,13.48
2023-04-30T13:25:11.048Z,14.18
2023-04-30T13:28:52.811Z,13.85
2023-04-30T13:32:34.577Z,13.30
2023-04-30T13:36:16.381Z,13.88
2023-04-30T13:39:59.431Z,13.20
2023-04-30T13:43:42.830Z,12.75
2023-04-30T13:47:24.867Z,14.00
2023-04-30T13:51:07.172Z,13.55
2023-04-30T13:54:48.958Z,13.70
2023-04-30T13:58:30.800Z,13.80
2023-04-30T14:02:12.502Z,13.40
2023-04-30T14:05:55.311Z,12.77
2023-04-30T14:09:37.254Z,12.20
2023-04-30T14:13:19.152Z,13.05
2023-04-30T14:17:01.983Z,12.23
2023-04-30T14:20:44.024Z,11.27
2023-04-30T14:24:26.089Z,10.18
2023-04-30T14:28:08.007Z,10.90
2023-04-30T14:31:51.148Z,10.15
2023-04-30T14:35:33.667Z,11.38
2023-04-30T14:39:15.506Z,12.10
2023-04-30T14:42:57.239Z,12.07
2023-04-30T14:46:38.995Z,11.98
2023-04-30T14:50:20.728Z,12.45
2023-04-30T14:54:02.740Z,13.18
2023-04-30T14:57:44.540Z,12.68
2023-04-30T15:01:28.506Z,13.80
2023-04-30T15:05:10.802Z,14.15
2023-04-30T15:08:52.500Z,13.27
2023-04-30T15:12:35.662Z,12.95
2023-04-30T15:16:17.514Z,13.02
2023-04-30T15:20:01.029Z,13.00
2023-04-30T15:23:42.912Z,13.55
2023-04-30T15:27:24.925Z,13.00
2023-04-30T15:31:06.887Z,12.30
2023-04-30T15:34:48.680Z,12.63
2023-04-30T15:38:31.388Z,12.60
2023-04-30T15:42:13.153Z,12.70
2023-04-30T15:45:54.874Z,12.20
2023-04-30T15:49:36.618Z,12.00
2023-04-30T15:53:18.422Z,12.50
2023-04-30T15:57:00.239Z,12.77
2023-04-30T16:00:42.114Z,12.20
2023-04-30T16:04:23.824Z,11.80
2023-04-30T16:08:12.173Z,11.90
2023-04-30T16:11:55.569Z,11.23
2023-04-30T16:15:37.311Z,11.65
2023-04-30T16:19:19.060Z,11.57
2023-04-30T16:23:00.866Z,10.80
2023-04-30T16:26:42.663Z,9.77
2023-04-30T16:30:24.415Z,10.80
2023-04-30T16:34:11.283Z,9.50
2023-04-30T16:37:54.628Z,9.88
2023-04-30T16:41:36.435Z,9.60
2023-04-30T16:45:18.138Z,8.75
2023-04-30T16:49:00.026Z,8.20
2023-04-30T16:52:41.917Z,7.78
2023-04-30T16:56:23.632Z,9.27
2023-04-30T17:00:14.203Z,8.80
2023-04-30T17:03:56.290Z,8.52
2023-04-30T17:07:38.298Z,8.20
2023-04-30T17:11:22.303Z,8.15
2023-04-30T17:15:04.561Z,8.85
2023-04-30T17:18:46.695Z,8.85
2023-04-30T17:22:28.424Z,8.85
2023-04-30T17:26:10.150Z,7.55
2023-04-30T17:29:52.763Z,7.15
2023-04-30T17:33:35.200Z,7.88
2023-04-30T17:37:17.719Z,7.03
2023-04-30T17:40:59.648Z,8.15
2023-04-30T17:44:41.588Z,7.63
2023-04-30T17:48:23.376Z,7.82
2023-04-30T17:52:06.303Z,8.65
2023-04-30T17:55:48.041Z,9.07
2023-04-30T17:59:30.287Z,9.23
2023-04-30T18:03:12.182Z,9.60
2023-04-30T18:06:54.016Z,9.82
2023-04-30T18:10:37.050Z,9.63
2023-04-30T18:14:18.915Z,10.82
2023-04-30T18:18:00.749Z,10.30
2023-04-30T18:21:42.544Z,9.43
2023-04-30T18:25:24.361Z,10.88
2023-04-30T18:29:06.376Z,11.18
2023-04-30T18:32:48.166Z,11.40
2023-04-30T18:36:30.495Z,10.63
2023-04-30T18:40:12.351Z,11.70
2023-04-30T18:43:54.093Z,11.48
2023-04-30T18:47:35.878Z,12.38
2023-04-30T18:51:17.723Z,11.35
2023-04-30T18:54:59.620Z,11.55
2023-04-30T18:58:45.456Z,12.15
2023-04-30T19:02:27.379Z,12.18
2023-04-30T19:06:09.730Z,12.65
2023-04-30T19:09:53.552Z,13.40
2023-04-30T19:13:35.793Z,13.23
2023-04-30T19:17:20.222Z,13.75
2023-04-30T19:21:05.297Z,15.52
2023-04-30T19:24:47.071Z,15.35
2023-04-30T19:28:28.899Z,15.35
2023-04-30T19:32:11.072Z,14.82
2023-04-30T19:35:53.500Z,15.73
2023-04-30T19:39:36.509Z,15.25
2023-04-30T19:43:25.015Z,14.95
2023-04-30T19:47:06.701Z,15.27
2023-04-30T19:50:49.280Z,17.17
2023-04-30T19:54:31.561Z,16.33
2023-04-30T19:58:13.874Z,16.20
2023-04-30T20:01:56.124Z,16.27
2023-04-30T20:05:39.725Z,17.50
2023-04-30T20:09:21.672Z,15.88
2023-04-30T20:13:05.271Z,15.95
2023-04-30T20:16:53.538Z,16.02
2023-04-30T20:20:35.335Z,16.00
2023-04-30T20:24:17.334Z,15.35
2023-04-30T20:27:59.098Z,15.40
2023-04-30T20:31:40.972Z,16.02
2023-04-30T20:35:23.690Z,14.48
2023-04-30T20:39:05.444Z,15.27
2023-04-30T20:42:47.520Z,16.50
2023-04-30T20:46:29.533Z,16.15
2023-04-30T20:50:11.768Z,15.35
2023-04-30T20:53:53.585Z,15.32
2023-04-30T20:57:36.616Z,16.65
2023-04-30T21:01:18.660Z,15.25
2023-04-30T21:05:04.393Z,15.38
2023-04-30T21:08:46.510Z,15.68
2023-04-30T21:12:28.781Z,14.77
2023-04-30T21:16:10.487Z,15.43
2023-04-30T21:19:52.376Z,16.10
2023-04-30T21:23:35.124Z,16.20
2023-04-30T21:27:16.861Z,16.80
2023-04-30T21:30:58.611Z,18.00
2023-04-30T21:34:40.350Z,18.05
2023-04-30T21:38:22.065Z,19.95
2023-04-30T21:42:04.549Z,19.90
2023-04-30T21:45:46.321Z,19.55
2023-04-30T21:49:28.160Z,20.60
2023-04-30T21:53:10.459Z,20.10
2023-04-30T21:56:52.405Z,19.73
2023-04-30T22:00:35.067Z,21.40
2023-04-30T22:04:16.891Z,21.23
2023-04-30T22:07:58.731Z,20.67
2023-04-30T22:11:41.607Z,20.10
2023-04-30T22:15:23.599Z,19.88
2023-04-30T22:19:07.682Z,17.60
2023-04-30T22:22:49.421Z,17.95
2023-04-30T22:26:31.695Z,16.15
2023-04-30T22:30:13.500Z,17.63
2023-04-30T22:33:55.341Z,16.33
2023-04-30T22:37:38.740Z,13.93
2023-04-30T22:41:22.328Z,11.05
2023-04-30T22:45:04.479Z,9.45
2023-04-30T22:48:46.435Z,4.15
2023-04-30T22:52:29.529Z,2.90
2023-04-30T22:56:11.408Z,2.85
2023-04-30T22:59:53.190Z,3.28
2023-04-30T23:03:35.558Z,3.55
2023-04-30T23:07:17.316Z,3.10
2023-04-30T23:11:00.331Z,4.38
2023-04-30T23:14:42.515Z,4.57
2023-04-30T23:18:24.398Z,3.72
2023-04-30T23:22:06.208Z,4.13
2023-04-30T23:25:47.921Z,3.58
2023-04-30T23:29:29.870Z,3.95
2023-04-30T23:33:12.125Z,3.85
2023-04-30T23:36:54.158Z,3.70
2023-04-30T23:40:36.950Z,3.47
2023-04-30T23:44:18.755Z,4.07
2023-04-30T23:48:00.699Z,3.92
2023-04-30T23:51:42.507Z,3.70
2023-04-30T23:55:24.203Z,3.72
2023-04-30T23:59:05.949Z,3.85
